sensor_id;sensor_type;location;lat;lon;timestamp;P1;P2;P0
76784;PMS7003;66893;44.316;0.092;2024-02-21T00:01:52;7.50;6.50;6.00
76784;PMS7003;66893;44.316;0.092;2024-02-21T00:04:18;7.25;6.75;4.25
76784;PMS7003;66893;44.316;0.092;2024-02-21T00:06:43;7.00;7.00;6.00
76784;PMS7003;66893;44.316;0.092;2024-02-21T00:09:09;7.25;7.25;5.50
76784;PMS7003;66893;44.316;0.092;2024-02-21T00:11:34;6.00;6.00;5.00
76784;PMS7003;66893;44.316;0.092;2024-02-21T00:14:00;5.50;5.50;4.00
76784;PMS7003;66893;44.316;0.092;2024-02-21T00:16:25;6.25;5.50;4.75
76784;PMS7003;66893;44.316;0.092;2024-02-21T00:18:51;7.75;5.00;4.00
76784;PMS7003;66893;44.316;0.092;2024-02-21T00:21:16;11.25;6.00;5.00
76784;PMS7003;66893;44.316;0.092;2024-02-21T00:23:46;5.00;5.00;4.25
76784;PMS7003;66893;44.316;0.092;2024-02-21T00:26:12;5.50;4.00;4.00
76784;PMS7003;66893;44.316;0.092;2024-02-21T00:28:38;5.00;4.75;4.00
76784;PMS7003;66893;44.316;0.092;2024-02-21T00:31:04;6.00;4.00;3.75
76784;PMS7003;66893;44.316;0.092;2024-02-21T00:33:29;4.25;4.25;4.25
76784;PMS7003;66893;44.316;0.092;2024-02-21T00:35:54;7.00;5.00;4.00
76784;PMS7003;66893;44.316;0.092;2024-02-21T00:38:20;7.00;5.50;4.25
76784;PMS7003;66893;44.316;0.092;2024-02-21T00:40:45;4.25;3.75;3.00
76784;PMS7003;66893;44.316;0.092;2024-02-21T00:43:11;6.00;6.00;5.00
76784;PMS7003;66893;44.316;0.092;2024-02-21T00:45:36;5.00;4.25;4.00
76784;PMS7003;66893;44.316;0.092;2024-02-21T00:48:02;5.50;5.50;5.00
76784;PMS7003;66893;44.316;0.092;2024-02-21T00:50:27;7.00;5.25;3.00
76784;PMS7003;66893;44.316;0.092;2024-02-21T00:52:53;7.00;5.25;4.00
76784;PMS7003;66893;44.316;0.092;2024-02-21T00:55:18;5.50;4.50;3.50
76784;PMS7003;66893;44.316;0.092;2024-02-21T00:57:43;5.00;5.00;4.00
76784;PMS7003;66893;44.316;0.092;2024-02-21T01:00:09;7.50;5.00;4.75
76784;PMS7003;66893;44.316;0.092;2024-02-21T01:02:35;6.50;4.75;3.75
76784;PMS7003;66893;44.316;0.092;2024-02-21T01:05:02;3.75;3.00;3.00
76784;PMS7003;66893;44.316;0.092;2024-02-21T01:07:27;4.00;4.00;3.75
76784;PMS7003;66893;44.316;0.092;2024-02-21T01:09:53;4.75;4.75;4.75
76784;PMS7003;66893;44.316;0.092;2024-02-21T01:12:18;6.00;5.75;4.50
76784;PMS7003;66893;44.316;0.092;2024-02-21T01:14:44;5.00;5.00;4.00
76784;PMS7003;66893;44.316;0.092;2024-02-21T01:17:11;4.75;4.75;4.00
76784;PMS7003;66893;44.316;0.092;2024-02-21T01:19:36;5.50;5.50;4.25
76784;PMS7003;66893;44.316;0.092;2024-02-21T01:22:02;6.50;6.50;5.00
76784;PMS7003;66893;44.316;0.092;2024-02-21T01:24:28;7.25;7.25;5.25
76784;PMS7003;66893;44.316;0.092;2024-02-21T01:26:53;6.75;6.00;5.00
76784;PMS7003;66893;44.316;0.092;2024-02-21T01:29:18;8.50;7.00;5.25
76784;PMS7003;66893;44.316;0.092;2024-02-21T01:31:44;8.25;6.75;5.00
76784;PMS7003;66893;44.316;0.092;2024-02-21T01:34:09;7.00;7.00;5.50
76784;PMS7003;66893;44.316;0.092;2024-02-21T01:36:34;7.75;7.00;5.25
76784;PMS7003;66893;44.316;0.092;2024-02-21T01:39:00;8.50;4.75;4.25
76784;PMS7003;66893;44.316;0.092;2024-02-21T01:41:25;10.00;8.50;6.50
76784;PMS7003;66893;44.316;0.092;2024-02-21T01:43:51;7.00;7.00;5.00
76784;PMS7003;66893;44.316;0.092;2024-02-21T01:46:16;7.75;6.50;5.50
76784;PMS7003;66893;44.316;0.092;2024-02-21T01:48:42;6.25;5.50;4.00
76784;PMS7003;66893;44.316;0.092;2024-02-21T01:51:10;8.25;6.00;5.00
76784;PMS7003;66893;44.316;0.092;2024-02-21T01:53:37;9.00;7.00;4.75
76784;PMS7003;66893;44.316;0.092;2024-02-21T01:56:07;8.00;6.00;4.00
76784;PMS7003;66893;44.316;0.092;2024-02-21T01:58:34;5.00;5.00;4.25
76784;PMS7003;66893;44.316;0.092;2024-02-21T02:01:02;5.00;5.00;4.00
76784;PMS7003;66893;44.316;0.092;2024-02-21T02:03:28;7.50;6.00;5.00
76784;PMS7003;66893;44.316;0.092;2024-02-21T02:05:55;7.50;6.25;5.00
76784;PMS7003;66893;44.316;0.092;2024-02-21T02:08:20;7.00;6.25;5.25
76784;PMS7003;66893;44.316;0.092;2024-02-21T02:10:48;6.75;6.75;6.00
76784;PMS7003;66893;44.316;0.092;2024-02-21T02:13:14;10.50;8.75;7.00
76784;PMS7003;66893;44.316;0.092;2024-02-21T02:15:40;5.50;3.00;2.00
76784;PMS7003;66893;44.316;0.092;2024-02-21T02:18:10;7.00;7.00;6.00
76784;PMS7003;66893;44.316;0.092;2024-02-21T02:20:36;6.25;6.25;5.00
76784;PMS7003;66893;44.316;0.092;2024-02-21T02:25:50;7.00;7.00;6.00
76784;PMS7003;66893;44.316;0.092;2024-02-21T02:28:18;5.00;5.00;4.00
76784;PMS7003;66893;44.316;0.092;2024-02-21T02:30:44;5.75;5.75;4.75
76784;PMS7003;66893;44.316;0.092;2024-02-21T02:33:10;8.00;6.00;5.25
76784;PMS7003;66893;44.316;0.092;2024-02-21T02:35:35;6.00;6.00;5.25
76784;PMS7003;66893;44.316;0.092;2024-02-21T02:38:01;6.00;6.00;5.25
76784;PMS7003;66893;44.316;0.092;2024-02-21T02:40:27;6.00;6.00;5.00
76784;PMS7003;66893;44.316;0.092;2024-02-21T02:42:53;5.00;5.00;3.50
76784;PMS7003;66893;44.316;0.092;2024-02-21T02:45:20;6.75;5.50;5.00
76784;PMS7003;66893;44.316;0.092;2024-02-21T02:47:48;5.00;5.00;4.50
76784;PMS7003;66893;44.316;0.092;2024-02-21T02:50:13;5.00;5.00;4.75
76784;PMS7003;66893;44.316;0.092;2024-02-21T02:52:39;6.50;6.00;5.00
76784;PMS7003;66893;44.316;0.092;2024-02-21T02:55:05;5.00;5.00;4.00
76784;PMS7003;66893;44.316;0.092;2024-02-21T02:57:31;6.00;6.00;4.50
76784;PMS7003;66893;44.316;0.092;2024-02-21T02:59:57;4.00;4.00;3.25
76784;PMS7003;66893;44.316;0.092;2024-02-21T03:02:22;5.00;5.00;4.00
76784;PMS7003;66893;44.316;0.092;2024-02-21T03:04:48;4.75;4.75;4.00
76784;PMS7003;66893;44.316;0.092;2024-02-21T03:07:14;5.00;4.00;4.00
76784;PMS7003;66893;44.316;0.092;2024-02-21T03:09:40;6.00;5.00;5.00
76784;PMS7003;66893;44.316;0.092;2024-02-21T03:12:05;4.00;4.00;3.75
76784;PMS7003;66893;44.316;0.092;2024-02-21T03:14:31;5.00;5.00;4.00
76784;PMS7003;66893;44.316;0.092;2024-02-21T03:16:58;6.00;6.00;5.00
76784;PMS7003;66893;44.316;0.092;2024-02-21T03:19:24;6.00;3.50;3.00
76784;PMS7003;66893;44.316;0.092;2024-02-21T03:21:49;4.00;3.00;3.00
76784;PMS7003;66893;44.316;0.092;2024-02-21T03:24:16;5.00;5.00;4.00
76784;PMS7003;66893;44.316;0.092;2024-02-21T03:26:42;4.50;4.50;4.00
76784;PMS7003;66893;44.316;0.092;2024-02-21T03:29:07;4.25;4.25;4.25
76784;PMS7003;66893;44.316;0.092;2024-02-21T03:31:34;9.00;6.50;4.75
76784;PMS7003;66893;44.316;0.092;2024-02-21T03:34:00;8.00;6.00;5.00
76784;PMS7003;66893;44.316;0.092;2024-02-21T03:36:25;6.00;5.75;4.75
76784;PMS7003;66893;44.316;0.092;2024-02-21T03:38:51;8.25;5.25;4.50
76784;PMS7003;66893;44.316;0.092;2024-02-21T03:41:16;10.25;7.00;6.00
76784;PMS7003;66893;44.316;0.092;2024-02-21T03:43:41;7.25;5.00;4.25
76784;PMS7003;66893;44.316;0.092;2024-02-21T03:46:07;8.00;7.00;5.25
76784;PMS7003;66893;44.316;0.092;2024-02-21T03:48:33;8.00;6.75;4.00
76784;PMS7003;66893;44.316;0.092;2024-02-21T03:50:58;6.50;5.00;4.75
76784;PMS7003;66893;44.316;0.092;2024-02-21T03:53:24;8.75;7.00;5.00
76784;PMS7003;66893;44.316;0.092;2024-02-21T03:55:49;7.75;5.75;4.75
76784;PMS7003;66893;44.316;0.092;2024-02-21T03:58:14;5.00;5.00;4.00
76784;PMS7003;66893;44.316;0.092;2024-02-21T04:00:40;6.00;5.00;4.00
76784;PMS7003;66893;44.316;0.092;2024-02-21T04:03:06;9.50;6.50;3.50
76784;PMS7003;66893;44.316;0.092;2024-02-21T04:05:31;4.00;4.00;4.00
76784;PMS7003;66893;44.316;0.092;2024-02-21T04:07:57;6.25;4.50;3.50
76784;PMS7003;66893;44.316;0.092;2024-02-21T04:10:22;5.00;4.50;3.00
76784;PMS7003;66893;44.316;0.092;2024-02-21T04:12:48;4.25;4.25;3.25
76784;PMS7003;66893;44.316;0.092;2024-02-21T04:15:15;5.75;5.75;4.00
76784;PMS7003;66893;44.316;0.092;2024-02-21T04:17:41;4.50;4.50;4.00
76784;PMS7003;66893;44.316;0.092;2024-02-21T04:20:13;4.25;3.00;2.00
76784;PMS7003;66893;44.316;0.092;2024-02-21T04:22:40;5.00;5.00;5.00
76784;PMS7003;66893;44.316;0.092;2024-02-21T04:25:05;3.50;3.50;3.00
76784;PMS7003;66893;44.316;0.092;2024-02-21T04:27:31;3.00;3.00;2.50
76784;PMS7003;66893;44.316;0.092;2024-02-21T04:29:56;4.75;4.75;3.75
76784;PMS7003;66893;44.316;0.092;2024-02-21T04:32:22;5.00;5.00;4.25
76784;PMS7003;66893;44.316;0.092;2024-02-21T04:34:48;4.25;4.25;4.00
76784;PMS7003;66893;44.316;0.092;2024-02-21T04:37:13;4.00;3.00;3.00
76784;PMS7003;66893;44.316;0.092;2024-02-21T04:39:38;4.00;4.00;3.50
76784;PMS7003;66893;44.316;0.092;2024-02-21T04:42:04;4.00;4.00;3.25
76784;PMS7003;66893;44.316;0.092;2024-02-21T04:44:29;4.75;4.75;3.50
76784;PMS7003;66893;44.316;0.092;2024-02-21T04:46:55;4.00;4.00;3.00
76784;PMS7003;66893;44.316;0.092;2024-02-21T04:49:20;4.75;4.00;3.00
76784;PMS7003;66893;44.316;0.092;2024-02-21T04:51:45;6.00;4.25;4.00
76784;PMS7003;66893;44.316;0.092;2024-02-21T04:54:11;4.50;4.50;4.00
76784;PMS7003;66893;44.316;0.092;2024-02-21T04:56:36;4.00;4.00;3.75
76784;PMS7003;66893;44.316;0.092;2024-02-21T04:59:02;4.00;4.00;3.50
76784;PMS7003;66893;44.316;0.092;2024-02-21T05:01:30;4.75;4.75;4.00
76784;PMS7003;66893;44.316;0.092;2024-02-21T05:03:56;5.25;5.00;4.25
76784;PMS7003;66893;44.316;0.092;2024-02-21T05:06:21;5.25;5.25;4.50
76784;PMS7003;66893;44.316;0.092;2024-02-21T05:08:47;5.00;5.00;4.25
76784;PMS7003;66893;44.316;0.092;2024-02-21T05:11:12;6.00;5.00;4.25
76784;PMS7003;66893;44.316;0.092;2024-02-21T05:13:38;6.50;4.00;3.75
76784;PMS7003;66893;44.316;0.092;2024-02-21T05:16:03;5.25;4.00;3.00
76784;PMS7003;66893;44.316;0.092;2024-02-21T05:18:29;4.75;4.75;3.75
76784;PMS7003;66893;44.316;0.092;2024-02-21T05:20:54;7.25;4.50;4.00
76784;PMS7003;66893;44.316;0.092;2024-02-21T05:23:20;3.75;3.75;2.75
76784;PMS7003;66893;44.316;0.092;2024-02-21T05:25:45;5.00;4.00;4.00
76784;PMS7003;66893;44.316;0.092;2024-02-21T05:28:11;5.00;4.50;4.00
76784;PMS7003;66893;44.316;0.092;2024-02-21T05:30:36;5.00;5.00;4.00
76784;PMS7003;66893;44.316;0.092;2024-02-21T05:33:05;6.00;6.00;5.00
76784;PMS7003;66893;44.316;0.092;2024-02-21T05:35:31;4.75;4.75;4.00
76784;PMS7003;66893;44.316;0.092;2024-02-21T05:37:56;6.00;6.00;5.00
76784;PMS7003;66893;44.316;0.092;2024-02-21T05:40:21;6.25;5.00;4.50
76784;PMS7003;66893;44.316;0.092;2024-02-21T05:42:47;7.50;5.75;4.75
76784;PMS7003;66893;44.316;0.092;2024-02-21T05:45:12;6.00;6.00;5.00
76784;PMS7003;66893;44.316;0.092;2024-02-21T05:47:39;6.00;4.00;4.00
76784;PMS7003;66893;44.316;0.092;2024-02-21T05:50:05;5.25;5.25;4.25
76784;PMS7003;66893;44.316;0.092;2024-02-21T05:52:31;6.00;4.50;3.00
76784;PMS7003;66893;44.316;0.092;2024-02-21T05:54:56;9.00;6.00;5.00
76784;PMS7003;66893;44.316;0.092;2024-02-21T05:57:21;5.75;5.75;5.00
76784;PMS7003;66893;44.316;0.092;2024-02-21T05:59:47;8.00;8.00;5.00
76784;PMS7003;66893;44.316;0.092;2024-02-21T06:02:12;6.00;6.00;5.00
76784;PMS7003;66893;44.316;0.092;2024-02-21T06:04:38;8.75;8.75;7.00
76784;PMS7003;66893;44.316;0.092;2024-02-21T06:07:04;7.50;7.25;6.00
76784;PMS7003;66893;44.316;0.092;2024-02-21T06:09:30;10.25;8.50;6.00
76784;PMS7003;66893;44.316;0.092;2024-02-21T06:11:55;8.50;7.50;6.75
76784;PMS7003;66893;44.316;0.092;2024-02-21T06:14:21;7.00;7.00;5.50
76784;PMS7003;66893;44.316;0.092;2024-02-21T06:16:46;6.50;6.50;6.00
76784;PMS7003;66893;44.316;0.092;2024-02-21T06:19:12;10.00;8.75;7.25
76784;PMS7003;66893;44.316;0.092;2024-02-21T06:21:37;6.50;6.00;3.25
76784;PMS7003;66893;44.316;0.092;2024-02-21T06:24:03;6.75;6.50;5.75
76784;PMS7003;66893;44.316;0.092;2024-02-21T06:26:28;6.50;6.25;5.25
76784;PMS7003;66893;44.316;0.092;2024-02-21T06:28:54;9.00;7.75;6.25
76784;PMS7003;66893;44.316;0.092;2024-02-21T06:31:19;8.25;5.75;5.25
76784;PMS7003;66893;44.316;0.092;2024-02-21T06:33:45;8.50;8.50;6.50
76784;PMS7003;66893;44.316;0.092;2024-02-21T06:36:10;9.00;6.25;5.00
76784;PMS7003;66893;44.316;0.092;2024-02-21T06:38:36;10.00;8.25;7.00
76784;PMS7003;66893;44.316;0.092;2024-02-21T06:41:01;8.50;8.00;6.00
76784;PMS7003;66893;44.316;0.092;2024-02-21T06:43:27;9.00;9.00;7.00
76784;PMS7003;66893;44.316;0.092;2024-02-21T06:45:53;8.50;8.50;7.00
76784;PMS7003;66893;44.316;0.092;2024-02-21T06:48:20;8.25;7.00;5.00
76784;PMS7003;66893;44.316;0.092;2024-02-21T06:50:45;9.75;7.25;5.00
76784;PMS7003;66893;44.316;0.092;2024-02-21T06:53:11;9.25;8.75;7.00
76784;PMS7003;66893;44.316;0.092;2024-02-21T06:55:37;10.25;7.50;6.50
76784;PMS7003;66893;44.316;0.092;2024-02-21T06:58:02;9.75;9.00;7.00
76784;PMS7003;66893;44.316;0.092;2024-02-21T07:00:28;10.50;10.00;7.25
76784;PMS7003;66893;44.316;0.092;2024-02-21T07:02:54;7.75;7.75;6.00
76784;PMS7003;66893;44.316;0.092;2024-02-21T07:05:19;7.75;6.50;5.00
76784;PMS7003;66893;44.316;0.092;2024-02-21T07:07:45;10.75;9.75;7.50
76784;PMS7003;66893;44.316;0.092;2024-02-21T07:10:10;10.50;8.00;7.00
76784;PMS7003;66893;44.316;0.092;2024-02-21T07:12:36;9.00;7.75;6.25
76784;PMS7003;66893;44.316;0.092;2024-02-21T07:15:04;10.50;7.75;6.25
76784;PMS7003;66893;44.316;0.092;2024-02-21T07:17:30;8.25;8.25;6.00
76784;PMS7003;66893;44.316;0.092;2024-02-21T07:19:55;14.50;11.25;9.25
76784;PMS7003;66893;44.316;0.092;2024-02-21T07:22:24;14.25;13.00;10.50
76784;PMS7003;66893;44.316;0.092;2024-02-21T07:24:50;18.25;15.00;11.25
76784;PMS7003;66893;44.316;0.092;2024-02-21T07:27:15;18.00;17.00;12.00
76784;PMS7003;66893;44.316;0.092;2024-02-21T07:29:41;23.75;20.75;15.75
76784;PMS7003;66893;44.316;0.092;2024-02-21T07:32:06;20.00;17.25;12.75
76784;PMS7003;66893;44.316;0.092;2024-02-21T07:34:31;23.00;22.75;15.25
76784;PMS7003;66893;44.316;0.092;2024-02-21T07:36:57;23.25;22.00;15.25
76784;PMS7003;66893;44.316;0.092;2024-02-21T07:39:22;23.25;21.00;15.50
76784;PMS7003;66893;44.316;0.092;2024-02-21T07:41:48;21.50;19.75;13.75
76784;PMS7003;66893;44.316;0.092;2024-02-21T07:44:14;18.75;17.00;12.00
76784;PMS7003;66893;44.316;0.092;2024-02-21T07:46:40;11.00;10.00;8.00
76784;PMS7003;66893;44.316;0.092;2024-02-21T07:49:05;12.75;10.50;8.50
76784;PMS7003;66893;44.316;0.092;2024-02-21T07:51:31;13.50;12.00;9.25
76784;PMS7003;66893;44.316;0.092;2024-02-21T07:53:56;15.50;15.50;10.75
76784;PMS7003;66893;44.316;0.092;2024-02-21T07:56:22;14.00;13.25;10.00
76784;PMS7003;66893;44.316;0.092;2024-02-21T07:58:47;15.50;13.25;10.00
76784;PMS7003;66893;44.316;0.092;2024-02-21T08:01:18;15.50;14.00;11.00
76784;PMS7003;66893;44.316;0.092;2024-02-21T08:03:47;19.50;15.50;11.75
76784;PMS7003;66893;44.316;0.092;2024-02-21T08:06:13;24.00;19.00;13.50
76784;PMS7003;66893;44.316;0.092;2024-02-21T08:08:39;14.25;13.25;11.00
76784;PMS7003;66893;44.316;0.092;2024-02-21T08:11:04;18.50;16.00;11.50
76784;PMS7003;66893;44.316;0.092;2024-02-21T08:13:30;20.00;16.25;10.50
76784;PMS7003;66893;44.316;0.092;2024-02-21T08:15:56;13.50;12.25;10.50
76784;PMS7003;66893;44.316;0.092;2024-02-21T08:18:22;15.25;14.75;11.25
76784;PMS7003;66893;44.316;0.092;2024-02-21T08:20:47;22.50;16.00;12.00
76784;PMS7003;66893;44.316;0.092;2024-02-21T08:23:15;19.25;15.75;12.00
76784;PMS7003;66893;44.316;0.092;2024-02-21T08:25:41;25.00;19.25;15.00
76784;PMS7003;66893;44.316;0.092;2024-02-21T08:28:06;23.25;19.75;14.50
76784;PMS7003;66893;44.316;0.092;2024-02-21T08:30:33;24.50;21.25;16.50
76784;PMS7003;66893;44.316;0.092;2024-02-21T08:32:59;27.00;24.00;17.50
76784;PMS7003;66893;44.316;0.092;2024-02-21T08:35:25;29.75;25.00;17.50
76784;PMS7003;66893;44.316;0.092;2024-02-21T08:37:50;32.75;24.50;18.75
76784;PMS7003;66893;44.316;0.092;2024-02-21T08:40:16;30.25;24.75;17.75
76784;PMS7003;66893;44.316;0.092;2024-02-21T08:42:46;28.75;26.50;19.00
76784;PMS7003;66893;44.316;0.092;2024-02-21T08:45:13;26.25;22.75;16.25
76784;PMS7003;66893;44.316;0.092;2024-02-21T08:47:41;25.25;23.00;15.25
76784;PMS7003;66893;44.316;0.092;2024-02-21T08:50:07;25.75;24.00;16.75
76784;PMS7003;66893;44.316;0.092;2024-02-21T08:52:34;24.25;23.75;15.50
76784;PMS7003;66893;44.316;0.092;2024-02-21T08:55:00;21.50;19.50;15.25
76784;PMS7003;66893;44.316;0.092;2024-02-21T08:57:25;17.75;17.75;13.00
76784;PMS7003;66893;44.316;0.092;2024-02-21T08:59:52;20.00;16.25;13.50
76784;PMS7003;66893;44.316;0.092;2024-02-21T09:02:17;21.25;17.25;13.25
76784;PMS7003;66893;44.316;0.092;2024-02-21T09:04:42;13.75;10.75;6.50
76784;PMS7003;66893;44.316;0.092;2024-02-21T09:07:11;18.00;15.75;11.00
76784;PMS7003;66893;44.316;0.092;2024-02-21T09:09:36;15.50;14.50;10.00
76784;PMS7003;66893;44.316;0.092;2024-02-21T09:12:06;16.50;12.50;9.50
76784;PMS7003;66893;44.316;0.092;2024-02-21T09:14:32;16.50;13.50;10.50
76784;PMS7003;66893;44.316;0.092;2024-02-21T09:16:58;12.50;12.00;10.50
76784;PMS7003;66893;44.316;0.092;2024-02-21T09:19:23;14.50;13.50;10.75
76784;PMS7003;66893;44.316;0.092;2024-02-21T09:21:49;13.25;12.75;9.50
76784;PMS7003;66893;44.316;0.092;2024-02-21T09:24:14;16.25;12.00;10.00
76784;PMS7003;66893;44.316;0.092;2024-02-21T09:26:40;13.00;12.00;10.00
76784;PMS7003;66893;44.316;0.092;2024-02-21T09:29:05;12.00;12.00;9.00
76784;PMS7003;66893;44.316;0.092;2024-02-21T09:31:31;9.50;9.00;7.00
76784;PMS7003;66893;44.316;0.092;2024-02-21T09:33:56;10.00;10.00;7.00
76784;PMS7003;66893;44.316;0.092;2024-02-21T09:36:22;10.75;10.75;8.00
76784;PMS7003;66893;44.316;0.092;2024-02-21T09:38:47;9.25;9.00;8.00
76784;PMS7003;66893;44.316;0.092;2024-02-21T09:41:17;9.75;8.25;6.50
76784;PMS7003;66893;44.316;0.092;2024-02-21T09:43:43;2.25;1.00;1.00
76784;PMS7003;66893;44.316;0.092;2024-02-21T09:46:16;9.25;7.50;5.25
76784;PMS7003;66893;44.316;0.092;2024-02-21T09:51:31;8.75;8.00;6.75
76784;PMS7003;66893;44.316;0.092;2024-02-21T09:53:59;12.25;9.50;8.00
76784;PMS7003;66893;44.316;0.092;2024-02-21T09:56:25;10.00;9.25;7.00
76784;PMS7003;66893;44.316;0.092;2024-02-21T09:58:50;7.75;6.75;5.00
76784;PMS7003;66893;44.316;0.092;2024-02-21T10:01:16;7.75;7.50;4.75
76784;PMS7003;66893;44.316;0.092;2024-02-21T10:03:41;8.50;7.25;6.00
76784;PMS7003;66893;44.316;0.092;2024-02-21T10:06:08;7.75;6.00;5.00
76784;PMS7003;66893;44.316;0.092;2024-02-21T10:08:34;8.00;7.00;5.75
76784;PMS7003;66893;44.316;0.092;2024-02-21T10:10:59;10.25;8.00;5.00
76784;PMS7003;66893;44.316;0.092;2024-02-21T10:13:27;7.50;6.00;4.50
76784;PMS7003;66893;44.316;0.092;2024-02-21T10:16:06;7.75;7.00;6.00
76784;PMS7003;66893;44.316;0.092;2024-02-21T10:18:32;7.00;5.75;5.00
76784;PMS7003;66893;44.316;0.092;2024-02-21T10:21:05;7.25;6.00;5.00
76784;PMS7003;66893;44.316;0.092;2024-02-21T10:23:45;6.25;6.00;4.00
76784;PMS7003;66893;44.316;0.092;2024-02-21T10:26:12;7.50;7.00;5.75
76784;PMS7003;66893;44.316;0.092;2024-02-21T10:28:38;5.00;5.00;4.00
76784;PMS7003;66893;44.316;0.092;2024-02-21T10:31:20;4.50;4.50;4.00
76784;PMS7003;66893;44.316;0.092;2024-02-21T10:33:59;8.75;6.50;5.00
76784;PMS7003;66893;44.316;0.092;2024-02-21T10:36:28;6.00;5.00;4.00
76784;PMS7003;66893;44.316;0.092;2024-02-21T10:38:54;5.50;5.50;4.00
76784;PMS7003;66893;44.316;0.092;2024-02-21T10:41:20;7.75;7.00;5.00
76784;PMS7003;66893;44.316;0.092;2024-02-21T10:43:48;7.00;4.75;4.00
76784;PMS7003;66893;44.316;0.092;2024-02-21T10:46:18;6.00;4.00;3.00
76784;PMS7003;66893;44.316;0.092;2024-02-21T10:48:45;7.00;5.00;4.00
76784;PMS7003;66893;44.316;0.092;2024-02-21T10:56:24;3.00;3.00;2.75
76784;PMS7003;66893;44.316;0.092;2024-02-21T10:58:54;3.50;3.50;2.50
76784;PMS7003;66893;44.316;0.092;2024-02-21T11:01:22;3.50;2.25;1.50
76784;PMS7003;66893;44.316;0.092;2024-02-21T11:03:49;4.00;4.00;3.75
76784;PMS7003;66893;44.316;0.092;2024-02-21T11:06:16;5.50;3.25;2.50
76784;PMS7003;66893;44.316;0.092;2024-02-21T11:08:43;3.50;3.50;1.50
76784;PMS7003;66893;44.316;0.092;2024-02-21T11:11:11;3.75;2.50;1.50
76784;PMS7003;66893;44.316;0.092;2024-02-21T11:13:42;4.00;2.50;2.50
76784;PMS7003;66893;44.316;0.092;2024-02-21T11:16:12;3.50;3.25;1.75
76784;PMS7003;66893;44.316;0.092;2024-02-21T11:18:47;2.50;2.50;2.00
76784;PMS7003;66893;44.316;0.092;2024-02-21T11:21:13;3.75;3.00;3.00
76784;PMS7003;66893;44.316;0.092;2024-02-21T11:23:39;2.00;2.00;1.75
76784;PMS7003;66893;44.316;0.092;2024-02-21T11:26:07;2.25;2.25;1.75
76784;PMS7003;66893;44.316;0.092;2024-02-21T11:28:36;1.50;1.50;1.50
76784;PMS7003;66893;44.316;0.092;2024-02-21T11:31:12;3.50;2.50;2.25
76784;PMS7003;66893;44.316;0.092;2024-02-21T11:33:41;2.75;2.00;1.00
76784;PMS7003;66893;44.316;0.092;2024-02-21T11:36:08;2.25;1.25;0.75
76784;PMS7003;66893;44.316;0.092;2024-02-21T11:38:37;3.75;2.00;1.75
76784;PMS7003;66893;44.316;0.092;2024-02-21T11:41:02;1.75;1.75;1.75
76784;PMS7003;66893;44.316;0.092;2024-02-21T11:43:28;1.75;1.75;1.25
76784;PMS7003;66893;44.316;0.092;2024-02-21T11:46:02;3.25;3.25;2.00
76784;PMS7003;66893;44.316;0.092;2024-02-21T11:48:28;8.00;5.00;3.25
76784;PMS7003;66893;44.316;0.092;2024-02-21T11:50:57;5.75;3.75;2.50
76784;PMS7003;66893;44.316;0.092;2024-02-21T11:53:23;9.25;3.50;2.00
76784;PMS7003;66893;44.316;0.092;2024-02-21T11:55:49;4.00;4.00;2.25
76784;PMS7003;66893;44.316;0.092;2024-02-21T11:58:15;3.00;2.00;2.00
76784;PMS7003;66893;44.316;0.092;2024-02-21T12:00:41;8.50;2.00;2.00
76784;PMS7003;66893;44.316;0.092;2024-02-21T12:03:06;2.75;1.00;1.00
76784;PMS7003;66893;44.316;0.092;2024-02-21T12:05:32;3.00;2.50;2.00
76784;PMS7003;66893;44.316;0.092;2024-02-21T12:07:58;4.50;2.00;2.00
76784;PMS7003;66893;44.316;0.092;2024-02-21T12:10:25;3.75;2.25;2.00
76784;PMS7003;66893;44.316;0.092;2024-02-21T12:12:52;3.25;3.25;2.25
76784;PMS7003;66893;44.316;0.092;2024-02-21T12:15:19;2.00;0.00;0.00
76784;PMS7003;66893;44.316;0.092;2024-02-21T12:17:45;3.50;3.00;2.25
76784;PMS7003;66893;44.316;0.092;2024-02-21T12:20:10;3.00;2.00;2.00
76784;PMS7003;66893;44.316;0.092;2024-02-21T12:22:36;2.00;2.00;1.00
76784;PMS7003;66893;44.316;0.092;2024-02-21T12:25:23;4.00;3.50;2.25
76784;PMS7003;66893;44.316;0.092;2024-02-21T12:27:51;3.00;3.00;2.00
76784;PMS7003;66893;44.316;0.092;2024-02-21T12:30:17;1.25;1.00;1.00
76784;PMS7003;66893;44.316;0.092;2024-02-21T12:32:42;3.50;2.00;2.00
76784;PMS7003;66893;44.316;0.092;2024-02-21T12:35:08;2.00;2.00;1.50
76784;PMS7003;66893;44.316;0.092;2024-02-21T12:37:34;2.00;2.00;1.50
76784;PMS7003;66893;44.316;0.092;2024-02-21T12:39:59;2.00;1.75;1.00
76784;PMS7003;66893;44.316;0.092;2024-02-21T12:42:25;1.25;1.25;1.00
76784;PMS7003;66893;44.316;0.092;2024-02-21T12:44:51;2.25;2.25;1.50
76784;PMS7003;66893;44.316;0.092;2024-02-21T12:47:17;5.00;2.00;1.25
76784;PMS7003;66893;44.316;0.092;2024-02-21T12:49:44;1.75;1.25;1.00
76784;PMS7003;66893;44.316;0.092;2024-02-21T12:52:10;1.00;1.00;0.50
76784;PMS7003;66893;44.316;0.092;2024-02-21T12:54:36;2.00;2.00;1.00
76784;PMS7003;66893;44.316;0.092;2024-02-21T12:57:01;2.75;2.75;2.00
76784;PMS7003;66893;44.316;0.092;2024-02-21T12:59:28;1.00;1.00;1.00
76784;PMS7003;66893;44.316;0.092;2024-02-21T13:01:54;1.50;1.00;1.00
76784;PMS7003;66893;44.316;0.092;2024-02-21T13:04:19;0.00;0.00;0.00
76784;PMS7003;66893;44.316;0.092;2024-02-21T13:06:46;3.00;1.00;0.50
76784;PMS7003;66893;44.316;0.092;2024-02-21T13:09:12;0.00;0.00;0.00
76784;PMS7003;66893;44.316;0.092;2024-02-21T13:11:38;2.25;2.00;1.00
76784;PMS7003;66893;44.316;0.092;2024-02-21T13:14:05;1.00;1.00;1.00
76784;PMS7003;66893;44.316;0.092;2024-02-21T13:16:31;1.50;1.50;1.00
76784;PMS7003;66893;44.316;0.092;2024-02-21T13:18:56;1.75;1.75;1.75
76784;PMS7003;66893;44.316;0.092;2024-02-21T13:21:22;1.25;1.25;1.00
76784;PMS7003;66893;44.316;0.092;2024-02-21T13:23:47;2.25;1.00;1.00
76784;PMS7003;66893;44.316;0.092;2024-02-21T13:26:13;1.50;1.50;1.50
76784;PMS7003;66893;44.316;0.092;2024-02-21T13:28:39;1.75;1.75;1.50
76784;PMS7003;66893;44.316;0.092;2024-02-21T13:31:04;2.25;1.50;1.25
76784;PMS7003;66893;44.316;0.092;2024-02-21T13:33:30;1.00;1.00;1.00
76784;PMS7003;66893;44.316;0.092;2024-02-21T13:35:55;4.00;2.00;2.00
76784;PMS7003;66893;44.316;0.092;2024-02-21T13:38:21;2.25;2.00;2.00
76784;PMS7003;66893;44.316;0.092;2024-02-21T13:40:46;4.00;3.00;2.00
76784;PMS7003;66893;44.316;0.092;2024-02-21T13:43:12;1.00;1.00;1.00
76784;PMS7003;66893;44.316;0.092;2024-02-21T13:45:37;2.00;2.00;1.75
76784;PMS7003;66893;44.316;0.092;2024-02-21T13:48:03;4.00;2.00;2.00
76784;PMS7003;66893;44.316;0.092;2024-02-21T13:50:31;2.75;2.75;2.00
76784;PMS7003;66893;44.316;0.092;2024-02-21T13:52:57;2.00;1.75;1.00
76784;PMS7003;66893;44.316;0.092;2024-02-21T13:55:22;4.50;2.25;2.00
76784;PMS7003;66893;44.316;0.092;2024-02-21T13:57:51;3.00;3.00;2.00
76784;PMS7003;66893;44.316;0.092;2024-02-21T14:00:16;2.50;2.00;2.00
76784;PMS7003;66893;44.316;0.092;2024-02-21T14:02:43;2.00;2.00;2.00
76784;PMS7003;66893;44.316;0.092;2024-02-21T14:05:09;2.50;2.50;1.00
76784;PMS7003;66893;44.316;0.092;2024-02-21T14:07:35;4.75;3.00;2.25
76784;PMS7003;66893;44.316;0.092;2024-02-21T14:10:00;5.25;3.25;3.00
76784;PMS7003;66893;44.316;0.092;2024-02-21T14:12:26;3.00;2.00;1.00
76784;PMS7003;66893;44.316;0.092;2024-02-21T14:14:51;1.25;1.25;1.00
76784;PMS7003;66893;44.316;0.092;2024-02-21T14:17:17;3.50;2.75;2.00
76784;PMS7003;66893;44.316;0.092;2024-02-21T14:19:43;2.00;2.00;1.00
76784;PMS7003;66893;44.316;0.092;2024-02-21T14:22:08;2.75;2.75;2.00